Flight Track Log - Related Links

Times and Time Zones

All times are in EDT time to prevent confusion due to time zone crossing. See the AFL1855 flight status page for this flight to view local times or setup timezone preferences in your user account.

Time Position Orientation Groundspeed Altitude Reporting Facility
EDT Latitude Longitude Course Direction KTS MPH feet Rate Location/Type
Mon 08:07:00 AM 43.4413 48.7013 334° Northwest  Level Estimated
Mon 08:08:00 AM 43.5617 48.6202 334° Northwest  Level Estimated
Mon 08:09:00 AM 43.6821 48.5387 334° Northwest  Level Estimated
Mon 08:10:00 AM 43.8024 48.4569 334° Northwest  Level Estimated
Mon 08:11:00 AM 43.9227 48.3748 334° Northwest  Level Estimated
Mon 08:12:00 AM 44.0429 48.2923 334° Northwest  Level Estimated
Mon 08:13:00 AM 44.1630 48.2096 334° Northwest  Level Estimated
Mon 08:14:00 AM 44.2627 48.1406 334° Northwest  Level Estimated
Mon 08:15:00 AM 44.3624 48.0714 334° Northwest  Level Estimated
Mon 08:16:00 AM 44.4620 48.0019 334° Northwest  Level Estimated
Mon 08:17:00 AM 44.5615 47.9323 334° Northwest  Level Estimated
Mon 08:18:00 AM 44.6610 47.8623 333° Northwest  Level Estimated
Mon 08:19:00 AM 44.7605 47.7922 333° Northwest  Level Estimated
Mon 08:20:00 AM 44.8599 47.7218 333° Northwest  Level Estimated
Mon 08:21:00 AM 44.9593 47.6511 333° Northwest  Level Estimated
Mon 08:22:00 AM 45.0587 47.5802 333° Northwest  Level Estimated
Mon 08:23:00 AM 45.1580 47.5091 333° Northwest  Level Estimated
Mon 08:24:00 AM 45.2572 47.4377 333° Northwest  Level Estimated
Mon 08:25:00 AM 45.3564 47.3661 333° Northwest  Level Estimated
Mon 08:26:00 AM 45.4556 47.2942 333° Northwest  Level Estimated
Mon 08:27:00 AM 45.5547 47.2221 333° Northwest  Level Estimated
Mon 08:28:00 AM 45.6538 47.1497 333° Northwest  Level Estimated
Mon 08:29:00 AM 45.7528 47.0770 333° Northwest  Level Estimated
Mon 08:30:00 AM 45.8518 47.0041 333° Northwest  Level Estimated
Mon 08:31:00 AM 45.9507 46.9309 333° Northwest  Level Estimated
Mon 08:32:00 AM 46.0496 46.8575 333° Northwest  Level Estimated
Mon 08:33:00 AM 46.1485 46.7838 333° Northwest  Level Estimated
Mon 08:34:00 AM 46.2472 46.7099 333° Northwest  Level Estimated
Mon 08:35:00 AM 46.3460 46.6356 333° Northwest  Level Estimated
Mon 08:36:00 AM 46.4447 46.5611 333° Northwest  Level Estimated
Mon 08:37:00 AM 46.5433 46.4864 332° Northwest  Level Estimated
Mon 08:38:00 AM 46.6419 46.4113 332° Northwest  Level Estimated
Mon 08:39:00 AM 46.7405 46.3360 332° Northwest  Level Estimated
Mon 08:40:00 AM 46.8390 46.2604 332° Northwest  Level Estimated
Mon 08:41:00 AM 46.9375 46.1846 332° Northwest  Level Estimated
Mon 08:42:00 AM 47.0359 46.1084 332° Northwest  Level Estimated
Mon 08:43:00 AM 47.1342 46.0320 332° Northwest  Level Estimated
Mon 08:44:00 AM 47.2325 45.9553 332° Northwest  Level Estimated
Mon 08:45:00 AM 47.3307 45.8783 332° Northwest  Level Estimated
Mon 08:46:00 AM 47.4289 45.8010 332° Northwest  Level Estimated
Mon 08:47:00 AM 47.5271 45.7234 332° Northwest  Level Estimated
Mon 08:48:00 AM 47.6252 45.6456 332° Northwest  Level Estimated
Mon 08:49:00 AM 47.7232 45.5674 332° Northwest  Level Estimated
Mon 08:50:00 AM 47.8212 45.4890 332° Northwest  Level Estimated
Mon 08:51:00 AM 47.9191 45.4103 332° Northwest  Level Estimated
Mon 08:52:00 AM 48.0170 45.3312 332° Northwest  Level Estimated
Mon 08:53:00 AM 48.1148 45.2519 332° Northwest  Level Estimated
Mon 08:54:00 AM 48.2126 45.1722 332° Northwest  Level Estimated
Mon 08:55:00 AM 48.3103 45.0923 331° Northwest  Level Estimated
Mon 08:56:00 AM 48.4080 45.0120 331° Northwest  Level Estimated
Mon 08:57:00 AM 48.5056 44.9314 331° Northwest  Level Estimated
Mon 08:58:00 AM 48.6031 44.8506 331° Northwest  Level Estimated
Mon 08:59:00 AM 48.7006 44.7694 331° Northwest  Level Estimated
Mon 09:00:00 AM 48.7980 44.6879 331° Northwest  Level Estimated
Mon 09:01:00 AM 48.8954 44.6061 331° Northwest  Level Estimated
Mon 09:02:00 AM 48.9927 44.5239 331° Northwest  Level Estimated
Mon 09:03:00 AM 49.0900 44.4415 331° Northwest  Level Estimated
Mon 09:04:00 AM 49.1872 44.3587 331° Northwest  Level Estimated
Mon 09:05:00 AM 49.2843 44.2756 331° Northwest  Level Estimated
Mon 09:06:00 AM 49.3814 44.1921 331° Northwest  Level Estimated
Mon 09:07:00 AM 49.4784 44.1084 331° Northwest  Level Estimated
Mon 09:08:00 AM 49.5754 44.0243 331° Northwest  Level Estimated
Mon 09:09:00 AM 49.6723 43.9398 331° Northwest  Level Estimated
Mon 09:10:00 AM 49.7691 43.8550 331° Northwest  Level Estimated
Mon 09:11:00 AM 49.8659 43.7699 330° Northwest  Level Estimated
Mon 09:12:00 AM 49.9626 43.6845 330° Northwest  Level Estimated
Mon 09:13:00 AM 50.0592 43.5987 330° Northwest  Level Estimated
Mon 09:14:00 AM 50.1558 43.5125 330° Northwest  Level Estimated
Mon 09:15:00 AM 50.2523 43.4260 330° Northwest  Level Estimated
Mon 09:16:00 AM 50.3488 43.3392 330° Northwest  Level Estimated
Mon 09:17:00 AM 50.4452 43.2520 330° Northwest  Level Estimated
Mon 09:18:00 AM 50.5415 43.1645 330° Northwest  Level Estimated
Mon 09:19:00 AM 50.6378 43.0765 330° Northwest  Level Estimated
Mon 09:20:00 AM 50.7340 42.9883 330° Northwest  Level Estimated
Mon 09:21:00 AM 50.8301 42.8996 330° Northwest  Level Estimated
Mon 09:22:00 AM 50.9262 42.8106 330° Northwest  Level Estimated
Mon 09:23:00 AM 51.0221 42.7213 330° Northwest  Level Estimated
Mon 09:24:00 AM 51.1181 42.6315 330° Northwest  Level Estimated
Mon 09:25:00 AM 51.2139 42.5414 330° Northwest  Level Estimated
Mon 09:26:00 AM 51.3097 42.4509 329° Northwest  Level Estimated
Mon 09:27:00 AM 51.4054 42.3601 329° Northwest  Level Estimated
Mon 09:28:00 AM 51.5011 42.2688 329° Northwest  Level Estimated
Mon 09:29:00 AM 51.5966 42.1772 329° Northwest  Level Estimated
Mon 09:30:00 AM 51.6921 42.0852 329° Northwest  Level Estimated
Mon 09:31:00 AM 51.7876 41.9927 329° Northwest  Level Estimated
Mon 09:32:00 AM 51.8829 41.8999 329° Northwest  Level Estimated
Mon 09:33:00 AM 51.9782 41.8067 329° Northwest  Level Estimated
Mon 09:34:00 AM 52.0734 41.7132 329° Northwest  Level Estimated
Mon 09:35:00 AM 52.1685 41.6192 329° Northwest  Level Estimated
Mon 09:36:00 AM 52.2636 41.5248 329° Northwest  Level Estimated
Mon 09:37:00 AM 52.3586 41.4300 329° Northwest  Level Estimated
Mon 09:38:00 AM 52.4535 41.3348 329° Northwest  Level Estimated
Mon 09:39:00 AM 52.5483 41.2392 328° Northwest  Level Estimated
Mon 09:40:00 AM 52.6431 41.1431 328° Northwest  Level Estimated
Mon 09:41:00 AM 52.7378 41.0467 328° Northwest  Level Estimated
Mon 09:42:00 AM 52.8323 40.9498 328° Northwest  Level Estimated
Mon 09:43:00 AM 52.9269 40.8525 328° Northwest  Level Estimated
Mon 09:44:00 AM 53.0213 40.7548 328° Northwest  Level Estimated
Mon 09:45:00 AM 53.1157 40.6566 328° Northwest  Level Estimated
Mon 09:46:00 AM 53.2099 40.5581 328° Northwest  Level Estimated
Mon 09:47:00 AM 53.3041 40.4591 328° Northwest  Level Estimated
Mon 09:48:00 AM 53.3982 40.3596 328° Northwest  Level Estimated
Mon 09:49:00 AM 53.4923 40.2597 328° Northwest  Level Estimated
Mon 09:50:00 AM 53.5862 40.1594 328° Northwest  Level Estimated
Mon 09:51:00 AM 53.6801 40.0586 328° Northwest  Level Estimated
Mon 09:52:00 AM 53.7738 39.9574 327° Northwest  Level Estimated
Mon 09:53:00 AM 53.8675 39.8557 327° Northwest  Level Estimated
Mon 09:54:00 AM 53.9611 39.7536 327° Northwest  Level Estimated
Mon 09:55:00 AM 54.0546 39.6510 327° Northwest  Level Estimated
Mon 09:56:00 AM 54.1481 39.5479 327° Northwest  Level Estimated
Mon 09:56:00 AM 55.2173 38.2109 322° Northwest 353 406 18,800  Level FlightAware ADS-B
Mon 09:56:40 AM 55.2610 38.1256 310° West 344 396 17,700 -1,479 Descending FlightAware ADS-B
Mon 09:57:13 AM 55.2917 38.0639 313° West 342 394 17,000 -977 Descending FlightAware ADS-B
Mon 09:57:23 AM 55.3074 38.0410 327° Northwest 345 397 17,000  Level FlightAware ADS-B
Mon 09:57:32 AM 55.3207 38.0306 340° North 345 397 17,000  Level FlightAware ADS-B
Mon 09:57:43 AM 55.3367 38.0242 351° North 338 389 17,000  Level FlightAware ADS-B
Mon 09:58:13 AM 55.3819 38.0083 343° North 323 372 17,000 -700 Level FlightAware ADS-B
Mon 09:58:43 AM 55.4241 37.9856 343° North 327 376 16,300 -2,000 Descending FlightAware ADS-B
Mon 09:59:16 AM 55.4732 37.9595 343° North 337 388 14,900 -1,971 Descending FlightAware ADS-B
Mon 09:59:53 AM 55.5273 37.9312 343° North 330 380 14,000 -1,522 Descending FlightAware ADS-B
Mon 10:00:23 AM 55.5683 37.9127 352° North 325 374 13,200 -1,400 Descending FlightAware ADS-B
Mon 10:00:53 AM 55.6160 37.9046 355° North 314 361 12,600 -1,100 Descending FlightAware ADS-B
Mon 10:01:23 AM 55.6581 37.8976 355° North 302 348 12,100 -1,200 Descending FlightAware ADS-B
Mon 10:01:53 AM 55.6969 37.8914 355° North 294 338 11,400 -943 Descending FlightAware ADS-B
Mon 10:02:33 AM 55.7530 37.8821 355° North 293 337 11,000 -304 Descending FlightAware ADS-B
Mon 10:03:12 AM 55.8034 37.8740 355° North 265 305 11,000  Level FlightAware ADS-B
Mon 10:03:42 AM 55.8375 37.8682 355° North 253 291 11,000 -700 Level FlightAware ADS-B
Mon 10:04:12 AM 55.8716 37.8497 320° Northwest 258 297 10,300 -1,463 Descending FlightAware ADS-B
Mon 10:04:23 AM 55.8793 37.8336 308° West 260 299 10,000 -1,548 Descending FlightAware ADS-B
Mon 10:04:43 AM 55.8938 37.7967 305° West 257 296 9,500 -1,050 Descending FlightAware ADS-B
Mon 10:05:03 AM 55.9070 37.7638 306° West 248 285 9,300 -750 Descending FlightAware ADS-B
Mon 10:05:23 AM 55.9198 37.7299 300° West 240 276 9,000 -474 Descending FlightAware ADS-B
Mon 10:05:41 AM 55.9283 37.6999 297° West 245 282 9,000  Level FlightAware ADS-B
Mon 10:08:00 AM 55.9726 37.4146 286° West  Level Estimated
Mon 10:09:00 AM 55.9726 37.4146 North  Level Estimated
Mon 10:10:00 AM 55.9726 37.4146 North  Level Estimated
Mon 10:11:00 AM 55.9726 37.4146 North  Level Estimated
Mon 10:12:00 AM 55.9726 37.4146 North  Level Estimated
Mon 10:13:00 AM 55.9726 37.4146 North  Level Estimated
Mon 10:14:00 AM 55.9726 37.4146 North  Level Estimated
Mon 10:15:00 AM 55.9726 37.4146 North  Level Estimated
Mon 10:16:00 AM 55.9726 37.4146 North  Level Estimated
Mon 10:17:00 AM 55.9726 37.4146 North  Level Estimated
Mon 10:18:00 AM 55.9726 37.4146 North  Level Estimated
Mon 10:19:00 AM 55.9726 37.4146 North  Level Estimated
Mon 10:20:00 AM 55.9726 37.4146 North  Level Estimated
Mon 10:21:00 AM 55.9726 37.4146 North  Level Estimated

Login

Don't have an account? Register now (free) for customized features, flight alerts, and more!